Terminal Aerodrome Forecast
Issued by NWS Rapid City, SD

Home | Current Version | Previous Version | Text Only | Print | Product List | Glossary On
Versions: 1 2 3 4 5 6 7 8 9 10 11 12 13 14 15 16 17 18 19 20
172
FTUS43 KUNR 201720
TAFRAP
TAF
KRAP 201720Z 2018/2118 16015G25KT P6SM OVC100
     FM202100 16015G25KT P6SM -SHRA BKN025 OVC050
     FM210100 13011KT P6SM -SHRA BKN008 OVC015
     FM210500 14011KT P6SM OVC008=

USA.gov is the U.S. government's official web portal to all federal, state and local government web resources and services.